Time;durP1;ratioP1;P1;durP2;ratioP2;P2;SDS_P1;SDS_P2;PMS_P1;PMS_P2;Temp;Humidity;BMP_temperature;BMP_pressure;BME280_temperature;BME280_humidity;BME280_pressure;Samples;Min_cycle;Max_cycle;Signal;HPM_P1;HPM_P2
2022/04/07 00:01:26;;;;;;;6.63;2.40;;;;;;;8.33;97.21;99127.00;5234737;28;20065;-78
2022/04/07 00:03:57;;;;;;;7.60;2.20;;;;;;;8.33;96.76;99134.78;5235306;28;20284;-80
2022/04/07 00:06:28;;;;;;;9.43;1.90;;;;;;;8.36;96.22;99127.75;5234332;28;20032;-83
2022/04/07 00:09:02;;;;;;;5.80;2.67;;;;;;;8.30;97.23;99107.16;5235330;28;20025;-77
2022/04/07 00:11:35;;;;;;;7.82;2.40;;;;;;;8.33;95.63;99120.06;5234702;28;20049;-78
2022/04/07 00:14:06;;;;;;;8.20;2.40;;;;;;;8.31;96.19;99108.03;5237358;28;20021;-82
2022/04/07 00:16:38;;;;;;;7.27;2.37;;;;;;;8.46;94.28;99120.56;5237990;28;20088;-77
2022/04/07 00:19:10;;;;;;;7.40;2.27;;;;;;;8.39;95.14;99099.09;5238624;28;20022;-87
2022/04/07 00:21:42;;;;;;;5.87;2.33;;;;;;;8.45;94.17;99108.47;5239179;28;20500;-77
2022/04/07 00:24:13;;;;;;;8.30;2.35;;;;;;;8.52;94.01;99102.19;5238511;28;20031;-79
2022/04/07 00:26:44;;;;;;;12.83;2.73;;;;;;;8.56;93.49;99095.16;5238822;28;20089;-83
2022/04/07 00:29:17;;;;;;;8.70;2.50;;;;;;;8.59;93.35;99092.47;5238437;28;20152;-82
2022/04/07 00:31:56;;;;;;;;;;;;;;;8.53;93.73;99087.47;5238761;28;20635;-80
2022/04/07 00:34:27;;;;;;;5.72;2.22;;;;;;;8.43;94.10;99088.63;5237665;28;19923;-76
2022/04/07 00:36:58;;;;;;;8.33;2.97;;;;;;;8.39;94.69;99070.53;5237212;28;20022;-82
2022/04/07 00:39:30;;;;;;;9.33;2.60;;;;;;;8.27;95.79;99057.09;5237704;28;20021;-81
2022/04/07 00:42:01;;;;;;;8.50;2.67;;;;;;;8.21;96.23;99052.91;5238124;28;20026;-82
2022/04/07 00:44:32;;;;;;;8.57;2.30;;;;;;;8.25;95.87;99048.50;5237668;28;20523;-76
2022/04/07 00:47:04;;;;;;;8.87;2.23;;;;;;;8.28;96.01;99041.47;5237771;28;20029;-80
2022/04/07 00:49:35;;;;;;;9.87;2.30;;;;;;;8.41;95.06;99044.53;5237740;28;20029;-78
2022/04/07 00:52:08;;;;;;;6.83;2.10;;;;;;;8.26;96.27;99032.03;5236846;28;20053;-80
2022/04/07 00:54:40;;;;;;;9.07;2.80;;;;;;;8.25;97.19;99038.13;5237066;28;20033;-80
2022/04/07 00:57:11;;;;;;;7.47;2.87;;;;;;;8.06;98.53;99033.50;5237558;28;20025;-76
2022/04/07 00:59:43;;;;;;;7.23;3.13;;;;;;;8.03;99.29;99062.13;5237118;28;20492;-76
2022/04/07 01:02:14;;;;;;;12.17;3.57;;;;;;;8.08;98.74;99049.84;5219902;28;20027;-78
2022/04/07 01:04:46;;;;;;;7.73;2.97;;;;;;;8.01;100.00;99025.84;5218712;28;20073;-79
2022/04/07 01:07:18;;;;;;;11.33;3.27;;;;;;;7.99;100.00;99017.25;5236931;28;20025;-78
2022/04/07 01:09:49;;;;;;;8.50;3.33;;;;;;;7.95;100.00;99018.28;5236794;28;20358;-75
2022/04/07 01:12:20;;;;;;;8.60;3.13;;;;;;;7.88;100.00;99008.13;5236955;28;20064;-79
2022/04/07 01:15:01;;;;;;;14.63;3.83;;;;;;;7.87;100.00;99003.81;5236998;28;20409;-80
2022/04/07 01:17:34;;;;;;;10.82;4.10;;;;;;;7.81;100.00;99004.88;5236576;28;20029;-75
2022/04/07 01:20:06;;;;;;;;;;;;;;;7.81;100.00;99008.31;5237311;28;20029;-77
2022/04/07 01:22:41;;;;;;;9.13;3.30;;;;;;;7.75;100.00;98992.06;5237822;28;19959;-77
2022/04/07 01:25:13;;;;;;;7.63;2.72;;;;;;;7.77;100.00;98987.69;5235859;28;20025;-75
2022/04/07 01:27:49;;;;;;;10.88;2.80;;;;;;;7.83;100.00;98980.56;5237328;28;20036;-77
2022/04/07 01:30:20;;;;;;;10.55;3.33;;;;;;;7.87;100.00;98973.53;5236668;28;20116;-76
2022/04/07 01:32:56;;;;;;;12.13;3.03;;;;;;;7.96;99.77;98967.22;5237175;28;20025;-79
2022/04/07 01:35:29;;;;;;;9.38;3.33;;;;;;;8.00;98.89;98958.41;5237004;28;20106;-81
2022/04/07 01:38:01;;;;;;;;;;;;;;;8.03;98.36;98954.00;5237407;28;20473;-80
2022/04/07 01:40:35;;;;;;;11.00;3.13;;;;;;;8.08;97.27;98940.03;5236261;28;20050;-81
2022/04/07 01:43:09;;;;;;;14.00;3.55;;;;;;;8.11;97.24;98950.31;5236526;28;20108;-75
2022/04/07 01:45:42;;;;;;;8.05;2.42;;;;;;;8.08;97.50;98938.25;5236835;28;20021;-81
2022/04/07 01:48:15;;;;;;;;;;;;;;;7.99;98.48;98939.41;5237885;28;20029;-78
2022/04/07 01:50:50;;;;;;;6.97;2.83;;;;;;;8.10;96.85;98935.63;5237572;28;19971;-75
2022/04/07 01:53:22;;;;;;;9.98;2.92;;;;;;;8.17;96.63;98919.81;5219066;28;20508;-78
2022/04/07 01:55:54;;;;;;;13.85;3.45;;;;;;;8.27;96.19;98909.13;5237271;28;20045;-76
2022/04/07 01:58:26;;;;;;;9.20;2.72;;;;;;;8.22;96.89;98910.13;5238076;28;20108;-75
2022/04/07 02:00:59;;;;;;;14.40;3.92;;;;;;;8.27;96.76;98903.94;5238708;28;20432;-82
2022/04/07 02:03:30;;;;;;;10.30;3.22;;;;;;;8.35;95.75;98907.97;5241626;28;20517;-80
2022/04/07 02:06:17;;;;;;;10.47;2.93;;;;;;;8.24;97.32;98898.84;5238235;28;20143;-78
2022/04/07 02:08:48;;;;;;;11.88;3.72;;;;;;;8.15;98.42;98907.81;5238973;28;20036;-77
2022/04/07 02:11:23;;;;;;;8.20;3.07;;;;;;;8.05;99.95;98917.63;5238356;28;20033;-76
2022/04/07 02:13:54;;;;;;;9.10;3.13;;;;;;;8.05;99.70;98907.25;5219784;28;20056;-81
2022/04/07 02:16:27;;;;;;;8.27;2.77;;;;;;;8.13;98.80;98897.47;5237072;28;20032;-80
2022/04/07 02:18:59;;;;;;;8.88;3.17;;;;;;;8.20;97.64;98892.91;5236534;28;20397;-76
2022/04/07 02:21:30;;;;;;;8.77;3.10;;;;;;;8.23;97.56;98895.41;5235867;28;20033;-80
2022/04/07 02:24:01;;;;;;;16.10;3.87;;;;;;;8.34;96.46;98882.06;5217337;28;20676;-77
2022/04/07 02:26:33;;;;;;;12.20;3.33;;;;;;;8.37;95.93;98872.44;5235355;28;20112;-81
2022/04/07 02:29:05;;;;;;;10.20;3.17;;;;;;;8.40;95.90;98871.47;5235540;28;20872;-81
2022/04/07 02:31:36;;;;;;;10.10;3.17;;;;;;;8.51;94.37;98877.16;5235884;28;20037;-84
2022/04/07 02:34:08;;;;;;;10.93;4.57;;;;;;;8.60;93.17;98868.22;5235752;28;20393;-77
2022/04/07 02:36:39;;;;;;;10.90;3.33;;;;;;;8.68;92.16;98868.78;5235575;28;20040;-77
2022/04/07 02:39:10;;;;;;;13.10;3.67;;;;;;;8.66;91.87;98867.13;5235987;28;20061;-81
2022/04/07 02:41:42;;;;;;;9.50;2.90;;;;;;;8.59;93.30;98861.31;5235630;28;20032;-81
2022/04/07 02:44:13;;;;;;;8.47;2.73;;;;;;;8.61;92.06;98858.66;5235792;28;20100;-82
2022/04/07 02:46:44;;;;;;;17.10;4.17;;;;;;;8.72;91.01;98867.75;5236797;28;20642;-82
2022/04/07 02:49:17;;;;;;;11.47;2.97;;;;;;;8.72;91.16;98846.97;5236532;28;20033;-81
2022/04/07 02:51:50;;;;;;;8.68;2.65;;;;;;;8.73;90.71;98842.66;5235522;28;20021;-76
2022/04/07 02:54:21;;;;;;;11.48;3.30;;;;;;;8.72;90.46;98833.16;5235610;28;20064;-80
2022/04/07 02:56:52;;;;;;;19.07;3.23;;;;;;;8.71;89.99;98827.13;5236338;28;20496;-82
2022/04/07 02:59:24;;;;;;;17.67;3.83;;;;;;;8.81;89.19;98830.22;5236018;28;20037;-75
2022/04/07 03:01:56;;;;;;;12.03;3.40;;;;;;;8.82;89.23;98831.88;5235614;28;20496;-76
2022/04/07 03:04:28;;;;;;;13.25;3.55;;;;;;;8.89;87.90;98814.34;5235468;28;20431;-73
2022/04/07 03:06:59;;;;;;;10.47;3.00;;;;;;;8.88;88.55;98820.44;5235818;28;20037;-76
2022/04/07 03:09:30;;;;;;;11.30;3.90;;;;;;;8.99;87.10;98815.69;5218798;28;20054;-79
2022/04/07 03:12:02;;;;;;;10.57;3.07;;;;;;;8.92;87.91;98799.47;5235575;28;20021;-82
2022/04/07 03:14:33;;;;;;;17.70;3.60;;;;;;;8.96;87.31;98791.56;5218858;28;20052;-75
2022/04/07 03:17:05;;;;;;;10.60;3.03;;;;;;;9.04;86.40;98790.38;5239045;28;20025;-77
2022/04/07 03:19:37;;;;;;;11.73;3.73;;;;;;;9.08;85.99;98763.38;5240540;28;20104;-79
2022/04/07 03:22:08;;;;;;;10.45;3.35;;;;;;;9.06;86.30;98767.75;5239470;28;20025;-78
2022/04/07 03:24:39;;;;;;;7.77;2.67;;;;;;;8.99;87.09;98757.69;5242641;28;20036;-82
2022/04/07 03:27:11;;;;;;;12.90;3.57;;;;;;;8.99;86.56;98758.50;5241149;28;20029;-78
2022/04/07 03:29:43;;;;;;;11.50;3.40;;;;;;;9.07;85.65;98750.44;5241310;28;20096;-77
2022/04/07 03:32:14;;;;;;;8.43;2.60;;;;;;;9.04;85.43;98763.53;5223261;28;20133;-76
2022/04/07 03:34:45;;;;;;;13.47;3.30;;;;;;;9.01;85.92;98751.50;5239635;28;20025;-80
2022/04/07 03:37:18;;;;;;;8.90;2.57;;;;;;;9.03;84.91;98736.72;5241713;28;20112;-76
2022/04/07 03:39:49;;;;;;;;;;;;;;;9.08;84.78;98750.38;5223440;28;20026;-76
2022/04/07 03:42:21;;;;;;;11.02;3.28;;;;;;;9.06;84.49;98740.91;5240028;28;19924;-73
2022/04/07 03:44:52;;;;;;;10.67;2.90;;;;;;;9.07;85.07;98742.63;5237148;28;20035;-79
2022/04/07 03:47:23;;;;;;;7.47;3.20;;;;;;;9.12;84.19;98725.09;5236787;28;20033;-80
2022/04/07 03:49:55;;;;;;;9.83;2.90;;;;;;;9.06;84.63;98749.56;5239476;28;20112;-78
2022/04/07 03:52:26;;;;;;;18.67;3.73;;;;;;;9.09;84.59;98731.25;5239520;28;20041;-77
2022/04/07 03:54:58;;;;;;;8.77;3.00;;;;;;;9.18;83.71;98717.06;5240591;28;20021;-80
2022/04/07 03:57:30;;;;;;;12.57;4.28;;;;;;;9.17;83.79;98711.91;5240352;28;20060;-75
2022/04/07 04:00:04;;;;;;;11.27;3.60;;;;;;;9.12;84.31;98706.91;5239634;28;20057;-80
2022/04/07 04:02:35;;;;;;;7.55;2.80;;;;;;;9.15;83.66;98742.34;5240194;28;20116;-73
2022/04/07 04:05:07;;;;;;;11.87;2.73;;;;;;;9.15;83.82;98682.56;5240595;28;20457;-86
2022/04/07 04:07:38;;;;;;;9.53;3.00;;;;;;;9.13;83.46;98683.44;5240018;28;20025;-82
2022/04/07 04:10:10;;;;;;;8.27;2.50;;;;;;;9.11;83.79;98667.06;5239513;28;20035;-80
2022/04/07 04:12:41;;;;;;;10.70;3.07;;;;;;;9.13;83.40;98661.81;5239631;28;20029;-82
2022/04/07 04:15:13;;;;;;;6.77;2.93;;;;;;;9.17;83.31;98644.34;5240202;28;20060;-83
2022/04/07 04:17:44;;;;;;;5.80;2.63;;;;;;;9.11;84.11;98640.22;5239570;28;20140;-82
2022/04/07 04:20:15;;;;;;;8.23;2.20;;;;;;;9.11;84.30;98619.41;5239110;28;20039;-82
2022/04/07 04:22:47;;;;;;;4.97;2.60;;;;;;;9.09;84.38;98601.28;5239696;28;20097;-88
2022/04/07 04:25:18;;;;;;;6.73;1.97;;;;;;;9.09;84.01;98603.06;5239207;28;20121;-82
2022/04/07 04:27:50;;;;;;;8.90;2.63;;;;;;;9.10;83.83;98576.16;5239740;28;20030;-77
2022/04/07 04:30:21;;;;;;;7.47;1.93;;;;;;;9.16;83.06;98582.84;5238995;28;20372;-84
2022/04/07 04:32:52;;;;;;;3.93;1.90;;;;;;;9.20;82.81;98593.06;5238231;28;20036;-80
2022/04/07 04:35:24;;;;;;;7.40;2.93;;;;;;;9.22;82.52;98583.44;5237181;28;20331;-81
2022/04/07 04:37:55;;;;;;;8.03;2.10;;;;;;;9.19;83.33;98595.72;5238271;28;20037;-77
2022/04/07 04:40:27;;;;;;;6.22;1.90;;;;;;;9.11;84.35;98572.63;5237598;28;20042;-79
2022/04/07 04:43:00;;;;;;;8.67;2.10;;;;;;;9.04;84.98;98586.81;5220876;28;20061;-84
2022/04/07 04:45:31;;;;;;;7.15;2.58;;;;;;;9.02;86.09;98573.88;5238422;28;20097;-84
2022/04/07 04:48:03;;;;;;;5.03;1.80;;;;;;;8.94;87.07;98568.16;5237879;28;20030;-81
2022/04/07 04:50:34;;;;;;;8.63;2.60;;;;;;;8.72;89.23;98568.19;5223205;28;20034;-80
2022/04/07 04:53:05;;;;;;;6.37;2.07;;;;;;;8.61;91.16;98540.06;5216946;28;20061;-80
2022/04/07 04:55:37;;;;;;;4.83;2.13;;;;;;;8.58;92.10;98545.38;5216798;28;20037;-82
2022/04/07 04:58:08;;;;;;;4.60;1.70;;;;;;;8.49;93.77;98545.75;5217701;28;20041;-77
2022/04/07 05:00:41;;;;;;;4.63;1.80;;;;;;;8.33;95.82;98527.31;5216432;28;20034;-78
2022/04/07 05:03:12;;;;;;;3.92;1.45;;;;;;;8.36;95.09;98529.81;5216690;28;20026;-77
2022/04/07 05:05:43;;;;;;;2.93;1.47;;;;;;;8.29;96.11;98495.47;5217456;28;20458;-81
2022/04/07 05:08:15;;;;;;;7.53;1.87;;;;;;;8.35;94.93;98479.63;5216414;28;20029;-78
2022/04/07 05:10:46;;;;;;;4.00;1.90;;;;;;;8.48;93.94;98492.13;5216107;28;20054;-78
2022/04/07 05:13:17;;;;;;;4.77;1.97;;;;;;;8.49;94.79;98486.06;5217047;28;20033;-82
2022/04/07 05:15:49;;;;;;;3.40;1.80;;;;;;;8.54;94.30;98491.88;5217363;28;20029;-77
2022/04/07 05:18:20;;;;;;;5.33;1.90;;;;;;;8.53;94.23;98483.25;5216410;28;20036;-80
2022/04/07 05:20:51;;;;;;;3.80;1.70;;;;;;;8.58;93.85;98465.72;5217495;28;20038;-81
2022/04/07 05:23:23;;;;;;;9.47;2.13;;;;;;;8.62;93.67;98463.84;5217393;28;20030;-80
2022/04/07 05:25:54;;;;;;;5.53;2.40;;;;;;;8.64;93.97;98466.38;5219739;28;20034;-79
2022/04/07 05:28:25;;;;;;;3.07;1.90;;;;;;;8.53;94.67;98444.31;5223210;28;20113;-77
2022/04/07 05:30:57;;;;;;;5.03;2.20;;;;;;;8.43;96.16;98442.13;5222870;28;20034;-79
2022/04/07 05:33:28;;;;;;;7.00;2.50;;;;;;;8.44;95.58;98469.81;5223432;28;20065;-78
2022/04/07 05:36:00;;;;;;;4.87;2.83;;;;;;;8.33;98.05;98434.72;5205828;28;20030;-82
2022/04/07 05:38:31;;;;;;;7.10;3.20;;;;;;;8.12;100.00;98440.78;5221346;28;20374;-79
2022/04/07 05:41:03;;;;;;;8.20;2.50;;;;;;;8.03;100.00;98422.09;5217183;28;20401;-82
2022/04/07 05:43:34;;;;;;;9.60;3.33;;;;;;;7.91;100.00;98426.94;5216815;28;20033;-78
2022/04/07 05:46:05;;;;;;;7.87;3.53;;;;;;;7.80;100.00;98412.63;5216115;28;20037;-81
2022/04/07 05:48:37;;;;;;;8.30;3.87;;;;;;;7.71;100.00;98428.56;5215241;28;20367;-80
2022/04/07 05:51:08;;;;;;;9.90;4.20;;;;;;;7.70;100.00;98387.97;5215212;28;20102;-79
2022/04/07 05:53:39;;;;;;;9.40;4.33;;;;;;;7.73;100.00;98381.78;5215409;28;20577;-80
2022/04/07 05:56:11;;;;;;;10.33;4.17;;;;;;;7.67;100.00;98370.78;5216172;28;20422;-79
2022/04/07 05:58:42;;;;;;;8.57;4.53;;;;;;;7.70;100.00;98356.00;5215666;28;20025;-77
2022/04/07 06:01:14;;;;;;;6.73;3.73;;;;;;;7.67;100.00;98368.16;5216836;28;20034;-77
2022/04/07 06:03:45;;;;;;;11.57;4.33;;;;;;;7.66;100.00;98350.94;5214794;28;20018;-77
2022/04/07 06:06:17;;;;;;;13.53;4.93;;;;;;;7.65;100.00;98343.22;5217325;28;20021;-80
2022/04/07 06:08:48;;;;;;;7.80;4.83;;;;;;;7.65;100.00;98338.03;5217839;28;20061;-78
2022/04/07 06:11:19;;;;;;;13.27;5.43;;;;;;;7.59;100.00;98349.50;5216212;28;20033;-79
2022/04/07 06:13:51;;;;;;;10.50;4.43;;;;;;;7.61;100.00;98341.66;5215848;28;20121;-79
2022/04/07 06:16:22;;;;;;;12.03;4.20;;;;;;;7.57;100.00;98334.91;5216378;28;20017;-78
2022/04/07 06:18:54;;;;;;;10.80;4.43;;;;;;;7.56;100.00;98321.09;5215961;28;20060;-78
2022/04/07 06:21:29;;;;;;;10.53;4.87;;;;;;;7.60;100.00;98325.25;5216428;28;20030;-77
2022/04/07 06:24:00;;;;;;;10.82;4.43;;;;;;;7.57;100.00;98302.03;5215406;28;20057;-78
2022/04/07 06:26:32;;;;;;;9.33;3.63;;;;;;;7.58;100.00;98306.34;5215081;28;20103;-79
2022/04/07 06:29:03;;;;;;;7.20;3.90;;;;;;;7.55;100.00;98301.28;5214401;28;20156;-80
2022/04/07 06:31:34;;;;;;;11.07;4.57;;;;;;;7.55;100.00;98290.03;5197168;28;20128;-80
2022/04/07 06:34:06;;;;;;;13.33;4.70;;;;;;;7.55;100.00;98290.91;5214557;28;20397;-79
2022/04/07 06:36:37;;;;;;;10.27;3.40;;;;;;;7.52;100.00;98287.56;5214080;28;20037;-79
2022/04/07 06:39:08;;;;;;;8.97;3.10;;;;;;;7.52;100.00;98272.88;5214465;28;20492;-77
2022/04/07 06:41:40;;;;;;;11.70;3.33;;;;;;;7.51;100.00;98266.00;5215034;28;20636;-78
2022/04/07 06:44:11;;;;;;;8.87;2.97;;;;;;;7.42;100.00;98256.84;5214645;28;20048;-78
2022/04/07 06:46:42;;;;;;;13.90;3.70;;;;;;;7.44;100.00;98252.44;5214708;28;20033;-77
2022/04/07 06:49:14;;;;;;;11.23;3.50;;;;;;;7.49;100.00;98229.78;5214098;28;20080;-78
2022/04/07 06:51:45;;;;;;;8.30;3.90;;;;;;;7.49;100.00;98245.31;5213791;28;20030;-76
2022/04/07 06:54:16;;;;;;;9.57;3.13;;;;;;;7.51;100.00;98227.13;5215561;28;20060;-78
2022/04/07 06:56:48;;;;;;;7.57;3.33;;;;;;;7.55;100.00;98210.53;5214228;28;20029;-78
2022/04/07 06:59:19;;;;;;;9.87;3.10;;;;;;;7.47;100.00;98194.44;5213993;28;20086;-78
2022/04/07 07:01:50;;;;;;;8.83;3.00;;;;;;;7.48;100.00;98203.91;5213856;28;20037;-77
2022/04/07 07:04:22;;;;;;;9.80;3.40;;;;;;;7.46;100.00;98177.22;5214106;28;20041;-78
2022/04/07 07:06:53;;;;;;;11.40;3.93;;;;;;;7.49;100.00;98171.91;5214117;28;20044;-78
2022/04/07 07:09:27;;;;;;;12.37;3.23;;;;;;;7.51;100.00;98166.66;5213976;28;20037;-79
2022/04/07 07:11:59;;;;;;;10.25;3.13;;;;;;;7.52;100.00;98164.00;5213834;28;20030;-76
2022/04/07 07:14:30;;;;;;;9.80;3.33;;;;;;;7.48;100.00;98141.69;5213488;28;20052;-77
2022/04/07 07:17:02;;;;;;;9.20;3.23;;;;;;;7.49;100.00;98141.63;5213634;28;20026;-77
2022/04/07 07:19:33;;;;;;;11.20;3.63;;;;;;;7.47;100.00;98135.69;5213891;28;20029;-76
2022/04/07 07:22:04;;;;;;;9.97;3.20;;;;;;;7.49;100.00;98120.06;5213236;28;20037;-75
2022/04/07 07:24:36;;;;;;;10.57;3.47;;;;;;;7.48;100.00;98106.25;5217241;28;20053;-76
2022/04/07 07:27:07;;;;;;;6.97;3.17;;;;;;;7.48;100.00;98095.88;5217839;28;20022;-76
2022/04/07 07:29:38;;;;;;;9.33;3.13;;;;;;;7.57;100.00;98086.88;5217581;28;20026;-77
2022/04/07 07:32:10;;;;;;;9.03;3.43;;;;;;;7.62;100.00;98069.34;5217906;28;20101;-77
2022/04/07 07:34:41;;;;;;;10.27;4.77;;;;;;;7.70;100.00;98073.38;5217477;28;20028;-76
2022/04/07 07:37:17;;;;;;;9.50;3.47;;;;;;;7.76;100.00;98060.13;5217544;28;20526;-77
2022/04/07 07:39:50;;;;;;;8.30;3.78;;;;;;;7.82;100.00;98090.97;5217530;28;20102;-76
2022/04/07 07:42:22;;;;;;;7.82;3.20;;;;;;;7.82;100.00;98057.25;5217672;28;20026;-77
2022/04/07 07:44:54;;;;;;;7.35;3.40;;;;;;;7.90;100.00;98075.06;5218012;28;20036;-76
2022/04/07 07:47:25;;;;;;;9.33;3.70;;;;;;;7.97;100.00;98089.41;5217552;28;20477;-74
2022/04/07 07:49:57;;;;;;;7.53;3.23;;;;;;;7.85;100.00;98275.81;5217107;28;20034;-73
2022/04/07 07:52:28;;;;;;;3.40;1.60;;;;;;;6.17;100.00;98265.91;5216775;28;20420;-74
2022/04/07 07:55:01;;;;;;;3.77;1.40;;;;;;;5.60;100.00;98265.19;5216752;28;20121;-75
2022/04/07 07:57:32;;;;;;;4.97;1.50;;;;;;;5.26;100.00;98263.72;5217167;28;20112;-75
2022/04/07 08:00:07;;;;;;;6.30;1.50;;;;;;;5.17;100.00;98251.06;5216969;28;20033;-75
2022/04/07 08:02:38;;;;;;;6.20;1.77;;;;;;;5.11;100.00;98239.22;5217093;28;20022;-75
2022/04/07 08:05:10;;;;;;;7.63;2.10;;;;;;;5.05;100.00;98240.25;5217514;28;20568;-73
2022/04/07 08:07:42;;;;;;;4.93;1.97;;;;;;;4.97;100.00;98215.56;5216876;28;20044;-76
2022/04/07 08:10:14;;;;;;;4.13;1.88;;;;;;;4.99;100.00;98221.53;5216586;28;20033;-75
2022/04/07 08:12:46;;;;;;;6.80;1.77;;;;;;;5.04;100.00;98230.81;5198458;28;20912;-74
2022/04/07 08:15:17;;;;;;;7.27;2.00;;;;;;;5.13;100.00;98226.25;5216714;28;20034;-76
2022/04/07 08:17:49;;;;;;;6.27;2.20;;;;;;;5.15;100.00;98208.97;5216844;28;20497;-74
2022/04/07 08:20:20;;;;;;;8.40;1.80;;;;;;;5.24;100.00;98211.25;5216818;28;20485;-75
2022/04/07 08:22:51;;;;;;;9.00;3.90;;;;;;;5.33;100.00;98210.97;5216591;28;20026;-75
2022/04/07 08:25:23;;;;;;;3.10;1.53;;;;;;;5.47;100.00;98223.41;5216896;28;20113;-76
2022/04/07 08:27:54;;;;;;;5.67;2.47;;;;;;;5.63;100.00;98221.16;5198642;28;20045;-75
2022/04/07 08:30:25;;;;;;;7.57;2.67;;;;;;;5.77;100.00;98200.88;5217340;28;20045;-76
2022/04/07 08:32:57;;;;;;;7.87;2.13;;;;;;;5.87;100.00;98201.38;5216982;28;20034;-76
2022/04/07 08:35:28;;;;;;;4.27;1.70;;;;;;;6.01;100.00;98208.69;5216253;28;20120;-76
2022/04/07 08:37:59;;;;;;;5.37;2.60;;;;;;;6.24;100.00;98225.97;5216330;28;20025;-75
2022/04/07 08:40:34;;;;;;;10.83;2.00;;;;;;;6.28;100.00;98224.09;5215983;28;20134;-76
2022/04/07 08:43:08;;;;;;;4.50;1.88;;;;;;;6.34;100.00;98206.63;5216792;28;20088;-78
2022/04/07 08:45:41;;;;;;;5.05;1.88;;;;;;;6.46;100.00;98202.75;5216761;28;20545;-76
2022/04/07 08:48:13;;;;;;;9.75;2.28;;;;;;;6.47;100.00;98207.03;5216610;28;20025;-78
2022/04/07 08:50:45;;;;;;;7.10;2.80;;;;;;;6.65;100.00;98194.25;5216806;28;20088;-76
2022/04/07 08:53:16;;;;;;;9.35;2.40;;;;;;;6.80;100.00;98188.50;5216078;28;20130;-76
2022/04/07 08:55:48;;;;;;;6.57;3.57;;;;;;;6.91;100.00;98194.09;5216588;28;20037;-77
2022/04/07 08:58:19;;;;;;;6.53;2.40;;;;;;;7.09;100.00;98208.06;5216780;28;20096;-79
2022/04/07 09:00:50;;;;;;;8.03;3.00;;;;;;;7.39;100.00;98215.50;5217171;28;20064;-78
2022/04/07 09:03:23;;;;;;;6.77;2.13;;;;;;;7.59;100.00;98213.84;5217749;28;20033;-78
2022/04/07 09:05:56;;;;;;;6.30;2.28;;;;;;;7.76;100.00;98205.34;5219196;28;20168;-76
2022/04/07 09:08:32;;;;;;;8.18;2.88;;;;;;;7.82;100.00;98202.47;5218856;28;20025;-76
2022/04/07 09:11:06;;;;;;;4.65;1.77;;;;;;;7.93;100.00;98205.44;5219936;28;20505;-80
2022/04/07 09:13:45;;;;;;;6.38;2.20;;;;;;;8.01;100.00;98202.53;5219696;28;20049;-78
2022/04/07 09:16:16;;;;;;;5.85;2.40;;;;;;;8.06;100.00;98204.94;5220914;28;20120;-76
2022/04/07 09:18:48;;;;;;;6.13;2.30;;;;;;;8.11;100.00;98206.41;5220307;28;20060;-77
2022/04/07 09:21:27;;;;;;;6.80;3.47;;;;;;;8.25;100.00;98198.00;5218832;28;20052;-77
2022/04/07 09:24:00;;;;;;;5.90;2.40;;;;;;;8.57;100.00;98209.56;5217217;28;20088;-78
2022/04/07 09:26:42;;;;;;;3.50;2.35;;;;;;;8.83;100.00;98204.91;5216537;28;20041;-78
2022/04/07 09:29:14;;;;;;;5.80;3.70;;;;;;;9.48;100.00;98205.25;5216883;28;20030;-79
2022/04/07 09:31:53;;;;;;;6.33;3.30;;;;;;;9.61;100.00;98215.88;5216705;28;20100;-79
2022/04/07 09:34:31;;;;;;;4.95;3.13;;;;;;;9.91;99.75;98222.22;5216346;28;20107;-78
2022/04/07 09:37:07;;;;;;;6.45;3.65;;;;;;;10.04;95.31;98237.09;5216440;28;20029;-76
2022/04/07 09:39:40;;;;;;;7.97;3.60;;;;;;;9.96;93.28;98234.03;5217600;28;20863;-76
2022/04/07 09:42:29;;;;;;;4.35;2.58;;;;;;;9.73;89.89;98244.78;5198323;28;20030;-78
2022/04/07 09:45:01;;;;;;;5.47;2.63;;;;;;;9.56;89.66;98228.25;5215601;28;20030;-81
2022/04/07 09:47:45;;;;;;;5.70;2.20;;;;;;;9.53;85.55;98231.03;5215763;28;20504;-78
2022/04/07 09:50:22;;;;;;;4.28;1.90;;;;;;;9.78;79.92;98229.78;5215971;28;20431;-78
2022/04/07 09:52:58;;;;;;;7.63;2.08;;;;;;;9.64;81.92;98228.75;5215841;28;20367;-78
2022/04/07 09:55:34;;;;;;;6.22;2.50;;;;;;;10.09;76.92;98229.06;5216325;28;20033;-82
2022/04/07 09:58:11;;;;;;;7.30;2.45;;;;;;;10.35;76.28;98235.56;5219833;28;20064;-79
2022/04/07 10:00:43;;;;;;;7.30;2.42;;;;;;;10.25;76.86;98249.09;5203279;28;20046;-78
2022/04/07 10:03:20;;;;;;;5.40;2.43;;;;;;;10.10;76.84;98228.16;5222409;28;20026;-82
2022/04/07 10:05:52;;;;;;;5.97;3.03;;;;;;;9.78;78.20;98241.03;5202715;28;20033;-80
2022/04/07 10:08:25;;;;;;;4.60;2.10;;;;;;;9.67;78.04;98259.78;5220153;28;20049;-77
2022/04/07 10:10:57;;;;;;;8.15;2.55;;;;;;;9.94;81.16;98240.28;5218552;28;20026;-80
2022/04/07 10:13:29;;;;;;;9.00;2.47;;;;;;;9.40;76.28;98225.59;5222650;28;20121;-80
2022/04/07 10:16:05;;;;;;;7.28;2.58;;;;;;;9.46;77.95;98240.88;5225153;28;20038;-80
2022/04/07 10:18:55;;;;;;;5.43;1.80;;;;;;;10.22;71.41;98253.56;5209126;28;20034;-80
2022/04/07 10:21:55;;;;;;;7.32;2.30;;;;;;;10.39;65.59;98247.47;5225055;28;20547;-82
2022/04/07 10:24:34;;;;;;;8.88;2.63;;;;;;;11.09;63.44;98252.41;5221967;28;20026;-81
2022/04/07 10:27:10;;;;;;;3.58;1.52;;;;;;;11.86;60.82;98249.78;5217579;28;20079;-81
2022/04/07 10:30:04;;;;;;;7.65;2.63;;;;;;;11.61;60.57;98261.66;5215231;28;20431;-84
2022/04/07 10:32:44;;;;;;;9.27;2.60;;;;;;;12.13;59.66;98280.47;5216742;28;20478;-78
2022/04/07 10:35:37;;;;;;;7.63;2.20;;;;;;;12.33;58.51;98255.75;5216354;28;20029;-83
2022/04/07 10:38:11;;;;;;;6.90;2.53;;;;;;;11.93;59.47;98264.22;5224096;28;20053;-86
2022/04/07 10:40:50;;;;;;;9.90;2.45;;;;;;;12.32;60.78;98268.00;5229502;28;20300;-85
2022/04/07 10:43:25;;;;;;;9.05;3.28;;;;;;;13.39;60.47;98272.69;5230472;28;20052;-83
2022/04/07 10:46:11;;;;;;;12.75;3.60;;;;;;;12.12;60.17;98271.78;5222938;28;20022;-86
2022/04/07 10:48:50;;;;;;;13.65;4.57;;;;;;;10.97;61.83;98273.94;5219290;28;20041;-80
2022/04/07 10:51:43;;;;;;;8.25;2.85;;;;;;;10.82;63.18;98306.91;5220440;28;20141;-83
2022/04/07 10:54:15;;;;;;;10.07;2.42;;;;;;;10.48;64.62;98303.47;5221219;28;20132;-79
2022/04/07 10:56:49;;;;;;;11.25;3.10;;;;;;;11.11;61.79;98297.50;5217858;28;20037;-78
2022/04/07 10:59:27;;;;;;;13.50;3.35;;;;;;;11.67;58.94;98316.13;5217108;28;20026;-78
2022/04/07 11:02:06;;;;;;;12.05;2.88;;;;;;;12.31;57.90;98320.31;5216972;28;20033;-81
2022/04/07 11:05:02;;;;;;;9.95;3.33;;;;;;;11.21;58.18;98297.00;5216024;28;20084;-78
2022/04/07 11:07:50;;;;;;;10.63;3.03;;;;;;;11.18;58.50;98313.63;5216182;28;20025;-83
2022/04/07 11:10:48;;;;;;;9.00;2.42;;;;;;;12.37;55.98;98319.97;5198277;28;20054;-82
2022/04/07 11:13:42;;;;;;;12.57;3.35;;;;;;;12.49;56.89;98321.81;5215213;28;20025;-81
2022/04/07 11:16:25;;;;;;;14.63;3.05;;;;;;;12.27;56.77;98334.47;5215535;28;20061;-80
2022/04/07 11:19:20;;;;;;;9.13;3.08;;;;;;;11.96;56.19;98346.72;5216431;28;20467;-81
2022/04/07 11:22:06;;;;;;;14.60;3.22;;;;;;;12.85;55.26;98353.69;5216462;28;20033;-81
2022/04/07 11:24:44;;;;;;;7.70;2.60;;;;;;;13.23;52.30;98343.44;5216203;28;20097;-82
2022/04/07 11:27:39;;;;;;;13.15;3.88;;;;;;;12.71;54.24;98344.06;5216455;28;20025;-83
2022/04/07 11:30:13;;;;;;;11.60;3.47;;;;;;;13.12;53.71;98372.91;5215714;28;20065;-76
2022/04/07 11:33:18;;;;;;;14.02;4.40;;;;;;;12.46;52.90;98370.81;5215143;28;20136;-82
2022/04/07 11:36:05;;;;;;;13.98;3.25;;;;;;;11.95;53.17;98361.56;5215447;28;20030;-81
2022/04/07 11:38:48;;;;;;;10.85;3.20;;;;;;;11.37;53.56;98372.63;5217865;28;20426;-84
2022/04/07 11:41:19;;;;;;;;;;;;;;;10.79;56.13;98397.41;5216291;28;20431;-78
2022/04/07 11:43:52;;;;;;;11.82;3.95;;;;;;;10.60;58.30;98392.31;5215566;28;19924;-84
2022/04/07 11:46:33;;;;;;;11.18;3.15;;;;;;;10.65;56.62;98412.00;5215637;28;20385;-74
2022/04/07 11:49:04;;;;;;;12.43;3.40;;;;;;;11.74;55.91;98378.41;5216602;28;20269;-82
2022/04/07 11:51:36;;;;;;;11.53;3.97;;;;;;;12.36;52.58;98394.91;5197214;28;20041;-81
2022/04/07 11:54:07;;;;;;;15.47;3.73;;;;;;;12.52;51.88;98407.88;5215675;28;20137;-84
2022/04/07 11:56:39;;;;;;;11.07;3.40;;;;;;;13.60;50.98;98392.66;5216006;28;20156;-85
2022/04/07 11:59:12;;;;;;;11.33;3.63;;;;;;;12.89;49.69;98404.84;5218620;28;20030;-80
2022/04/07 12:01:45;;;;;;;11.25;3.53;;;;;;;12.52;49.92;98407.88;5217264;28;20076;-78
2022/04/07 12:04:19;;;;;;;8.70;2.80;;;;;;;12.71;49.73;98407.63;5197137;28;20054;-84
2022/04/07 12:06:52;;;;;;;13.10;4.20;;;;;;;12.05;51.21;98408.88;5215367;28;20177;-83